sensor_id;sensor_type;location;lat;lon;timestamp;temperature;humidity
59857;DHT22;45733;52.668;6.860;2023-11-19T00:02:22;14.70;99.90
59857;DHT22;45733;52.668;6.860;2023-11-19T00:04:59;13.70;99.90
59857;DHT22;45733;52.668;6.860;2023-11-19T00:07:25;13.40;99.90
59857;DHT22;45733;52.668;6.860;2023-11-19T00:09:53;14.70;99.90
59857;DHT22;45733;52.668;6.860;2023-11-19T00:12:20;13.50;99.90
59857;DHT22;45733;52.668;6.860;2023-11-19T00:14:49;14.50;99.90
59857;DHT22;45733;52.668;6.860;2023-11-19T00:17:26;13.50;99.90
59857;DHT22;45733;52.668;6.860;2023-11-19T00:19:52;13.60;99.90
59857;DHT22;45733;52.668;6.860;2023-11-19T00:22:18;13.60;99.90
59857;DHT22;45733;52.668;6.860;2023-11-19T00:24:46;13.90;99.90
59857;DHT22;45733;52.668;6.860;2023-11-19T00:27:12;15.10;99.90
59857;DHT22;45733;52.668;6.860;2023-11-19T00:29:45;14.10;99.90
59857;DHT22;45733;52.668;6.860;2023-11-19T00:32:17;15.00;99.90
59857;DHT22;45733;52.668;6.860;2023-11-19T00:34:59;13.70;99.90
59857;DHT22;45733;52.668;6.860;2023-11-19T00:37:50;14.40;99.90
59857;DHT22;45733;52.668;6.860;2023-11-19T00:40:22;15.40;99.90
59857;DHT22;45733;52.668;6.860;2023-11-19T00:42:54;15.00;99.90
59857;DHT22;45733;52.668;6.860;2023-11-19T00:45:56;14.10;99.90
59857;DHT22;45733;52.668;6.860;2023-11-19T00:48:27;14.20;99.90
59857;DHT22;45733;52.668;6.860;2023-11-19T00:51:35;15.10;99.90
59857;DHT22;45733;52.668;6.860;2023-11-19T00:54:43;15.70;99.90
59857;DHT22;45733;52.668;6.860;2023-11-19T01:00:59;14.70;99.90
59857;DHT22;45733;52.668;6.860;2023-11-19T01:03:27;14.80;99.90
59857;DHT22;45733;52.668;6.860;2023-11-19T01:07:17;15.50;99.90
59857;DHT22;45733;52.668;6.860;2023-11-19T01:10:24;15.30;99.90
59857;DHT22;45733;52.668;6.860;2023-11-19T01:14:07;14.10;99.90
59857;DHT22;45733;52.668;6.860;2023-11-19T01:16:45;14.00;99.90
59857;DHT22;45733;52.668;6.860;2023-11-19T01:19:37;15.60;99.90
59857;DHT22;45733;52.668;6.860;2023-11-19T01:22:06;15.10;99.90
59857;DHT22;45733;52.668;6.860;2023-11-19T01:25:21;15.50;99.90
59857;DHT22;45733;52.668;6.860;2023-11-19T01:28:53;14.60;99.90
59857;DHT22;45733;52.668;6.860;2023-11-19T01:32:10;15.70;99.90
59857;DHT22;45733;52.668;6.860;2023-11-19T01:35:20;15.40;99.90
59857;DHT22;45733;52.668;6.860;2023-11-19T01:41:48;14.20;99.90
59857;DHT22;45733;52.668;6.860;2023-11-19T01:45:10;14.90;99.90
59857;DHT22;45733;52.668;6.860;2023-11-19T01:52:31;14.80;99.90
59857;DHT22;45733;52.668;6.860;2023-11-19T01:59:04;16.10;99.90
59857;DHT22;45733;52.668;6.860;2023-11-19T02:28:28;14.50;99.90
59857;DHT22;45733;52.668;6.860;2023-11-19T02:31:21;15.60;99.90
59857;DHT22;45733;52.668;6.860;2023-11-19T02:41:55;14.40;99.90
59857;DHT22;45733;52.668;6.860;2023-11-19T02:59:08;14.60;99.90
59857;DHT22;45733;52.668;6.860;2023-11-19T03:02:08;16.00;99.90
59857;DHT22;45733;52.668;6.860;2023-11-19T03:13:33;14.50;99.90
59857;DHT22;45733;52.668;6.860;2023-11-19T03:31:10;14.50;99.90
59857;DHT22;45733;52.668;6.860;2023-11-19T03:34:05;15.50;99.90
59857;DHT22;45733;52.668;6.860;2023-11-19T03:37:18;15.10;99.90
59857;DHT22;45733;52.668;6.860;2023-11-19T03:40:04;15.10;99.90
59857;DHT22;45733;52.668;6.860;2023-11-19T03:42:39;14.80;99.90
59857;DHT22;45733;52.668;6.860;2023-11-19T03:49:08;15.80;99.90
59857;DHT22;45733;52.668;6.860;2023-11-19T03:52:06;15.70;99.90
59857;DHT22;45733;52.668;6.860;2023-11-19T03:54:38;15.60;99.90
59857;DHT22;45733;52.668;6.860;2023-11-19T03:57:14;15.20;99.90
59857;DHT22;45733;52.668;6.860;2023-11-19T03:59:55;15.00;99.90
59857;DHT22;45733;52.668;6.860;2023-11-19T04:06:28;15.50;99.90
59857;DHT22;45733;52.668;6.860;2023-11-19T04:09:36;15.50;99.90
59857;DHT22;45733;52.668;6.860;2023-11-19T04:12:36;15.10;99.90
59857;DHT22;45733;52.668;6.860;2023-11-19T04:15:31;15.40;99.90
59857;DHT22;45733;52.668;6.860;2023-11-19T04:18:14;15.20;99.90
59857;DHT22;45733;52.668;6.860;2023-11-19T04:20:58;14.70;99.90
59857;DHT22;45733;52.668;6.860;2023-11-19T04:24:14;15.10;99.90
59857;DHT22;45733;52.668;6.860;2023-11-19T04:27:36;14.80;99.90
59857;DHT22;45733;52.668;6.860;2023-11-19T04:34:09;15.00;99.90
59857;DHT22;45733;52.668;6.860;2023-11-19T04:36:53;14.80;99.90
59857;DHT22;45733;52.668;6.860;2023-11-19T04:39:33;14.70;99.90
59857;DHT22;45733;52.668;6.860;2023-11-19T04:45:59;14.80;99.90
59857;DHT22;45733;52.668;6.860;2023-11-19T04:52:18;14.70;99.90
59857;DHT22;45733;52.668;6.860;2023-11-19T04:59:10;14.90;99.90
59857;DHT22;45733;52.668;6.860;2023-11-19T05:02:05;14.80;99.90
59857;DHT22;45733;52.668;6.860;2023-11-19T05:05:38;14.80;99.90
59857;DHT22;45733;52.668;6.860;2023-11-19T05:19:00;15.20;99.90
59857;DHT22;45733;52.668;6.860;2023-11-19T05:21:44;14.80;99.90
59857;DHT22;45733;52.668;6.860;2023-11-19T05:27:59;14.90;99.90
59857;DHT22;45733;52.668;6.860;2023-11-19T05:30:40;15.10;99.90
59857;DHT22;45733;52.668;6.860;2023-11-19T05:33:34;15.10;99.90
59857;DHT22;45733;52.668;6.860;2023-11-19T05:36:18;15.10;99.90
59857;DHT22;45733;52.668;6.860;2023-11-19T05:38:55;15.10;99.90
59857;DHT22;45733;52.668;6.860;2023-11-19T05:42:05;14.90;99.90
59857;DHT22;45733;52.668;6.860;2023-11-19T05:48:03;14.90;99.90
59857;DHT22;45733;52.668;6.860;2023-11-19T05:58:05;15.00;99.90
59857;DHT22;45733;52.668;6.860;2023-11-19T06:00:35;15.00;99.90
59857;DHT22;45733;52.668;6.860;2023-11-19T06:03:28;14.90;99.90
59857;DHT22;45733;52.668;6.860;2023-11-19T06:12:42;15.00;99.90
59857;DHT22;45733;52.668;6.860;2023-11-19T06:19:13;14.80;99.90
59857;DHT22;45733;52.668;6.860;2023-11-19T06:21:42;14.80;99.90
59857;DHT22;45733;52.668;6.860;2023-11-19T06:33:42;14.70;99.90
59857;DHT22;45733;52.668;6.860;2023-11-19T06:36:46;14.80;99.90
59857;DHT22;45733;52.668;6.860;2023-11-19T06:39:14;14.80;99.90
59857;DHT22;45733;52.668;6.860;2023-11-19T06:42:20;14.60;99.90
59857;DHT22;45733;52.668;6.860;2023-11-19T06:45:17;14.60;99.90
59857;DHT22;45733;52.668;6.860;2023-11-19T06:47:49;14.70;99.90
59857;DHT22;45733;52.668;6.860;2023-11-19T06:50:49;14.60;99.90
59857;DHT22;45733;52.668;6.860;2023-11-19T06:54:01;14.60;99.90
59857;DHT22;45733;52.668;6.860;2023-11-19T06:56:36;14.70;99.90
59857;DHT22;45733;52.668;6.860;2023-11-19T06:59:17;14.80;99.90
59857;DHT22;45733;52.668;6.860;2023-11-19T07:02:19;14.70;99.90
59857;DHT22;45733;52.668;6.860;2023-11-19T07:05:22;14.70;99.90
59857;DHT22;45733;52.668;6.860;2023-11-19T07:07:48;14.50;99.90
59857;DHT22;45733;52.668;6.860;2023-11-19T07:10:20;14.50;99.90
59857;DHT22;45733;52.668;6.860;2023-11-19T07:13:16;14.50;99.90
59857;DHT22;45733;52.668;6.860;2023-11-19T07:16:13;14.60;99.90
59857;DHT22;45733;52.668;6.860;2023-11-19T07:25:43;14.50;99.90
59857;DHT22;45733;52.668;6.860;2023-11-19T07:31:49;14.50;99.90
59857;DHT22;45733;52.668;6.860;2023-11-19T07:34:10;14.50;99.90
59857;DHT22;45733;52.668;6.860;2023-11-19T07:36:40;14.60;99.90
59857;DHT22;45733;52.668;6.860;2023-11-19T07:42:14;14.60;99.90
59857;DHT22;45733;52.668;6.860;2023-11-19T07:44:43;14.50;99.90
59857;DHT22;45733;52.668;6.860;2023-11-19T07:47:14;14.60;99.90
59857;DHT22;45733;52.668;6.860;2023-11-19T07:49:40;14.60;99.90
59857;DHT22;45733;52.668;6.860;2023-11-19T07:52:15;14.50;99.90
59857;DHT22;45733;52.668;6.860;2023-11-19T07:54:58;14.60;99.90
59857;DHT22;45733;52.668;6.860;2023-11-19T07:57:27;14.50;99.90
59857;DHT22;45733;52.668;6.860;2023-11-19T07:59:59;14.50;99.90
59857;DHT22;45733;52.668;6.860;2023-11-19T08:02:29;14.70;99.90
59857;DHT22;45733;52.668;6.860;2023-11-19T08:05:01;14.70;99.90
59857;DHT22;45733;52.668;6.860;2023-11-19T08:07:27;14.70;99.90
59857;DHT22;45733;52.668;6.860;2023-11-19T08:09:55;14.70;99.90
59857;DHT22;45733;52.668;6.860;2023-11-19T08:12:21;14.70;99.90
59857;DHT22;45733;52.668;6.860;2023-11-19T08:14:53;14.70;99.90
59857;DHT22;45733;52.668;6.860;2023-11-19T08:17:19;14.70;99.90
59857;DHT22;45733;52.668;6.860;2023-11-19T08:20:00;14.70;99.90
59857;DHT22;45733;52.668;6.860;2023-11-19T08:22:49;14.80;99.90
59857;DHT22;45733;52.668;6.860;2023-11-19T08:25:18;14.70;99.90
59857;DHT22;45733;52.668;6.860;2023-11-19T08:27:47;14.80;99.90
59857;DHT22;45733;52.668;6.860;2023-11-19T08:30:38;14.70;99.90
59857;DHT22;45733;52.668;6.860;2023-11-19T08:33:20;14.70;99.90
59857;DHT22;45733;52.668;6.860;2023-11-19T08:36:09;14.80;99.90
59857;DHT22;45733;52.668;6.860;2023-11-19T08:39:06;14.70;99.90
59857;DHT22;45733;52.668;6.860;2023-11-19T08:42:13;14.70;99.90
59857;DHT22;45733;52.668;6.860;2023-11-19T08:44:51;14.60;99.90
59857;DHT22;45733;52.668;6.860;2023-11-19T08:47:22;14.60;99.90
59857;DHT22;45733;52.668;6.860;2023-11-19T08:50:15;14.50;99.90
59857;DHT22;45733;52.668;6.860;2023-11-19T08:52:41;14.60;99.90
59857;DHT22;45733;52.668;6.860;2023-11-19T08:55:07;14.50;99.90
59857;DHT22;45733;52.668;6.860;2023-11-19T08:57:35;14.50;99.90
59857;DHT22;45733;52.668;6.860;2023-11-19T09:00:10;14.50;99.90
59857;DHT22;45733;52.668;6.860;2023-11-19T09:03:08;14.80;99.90
59857;DHT22;45733;52.668;6.860;2023-11-19T09:05:37;14.80;99.90
59857;DHT22;45733;52.668;6.860;2023-11-19T09:08:10;14.80;99.90
59857;DHT22;45733;52.668;6.860;2023-11-19T09:10:40;14.70;99.90
59857;DHT22;45733;52.668;6.860;2023-11-19T09:13:06;14.70;99.90
59857;DHT22;45733;52.668;6.860;2023-11-19T09:15:31;14.80;99.90
59857;DHT22;45733;52.668;6.860;2023-11-19T09:17:57;14.80;99.90
59857;DHT22;45733;52.668;6.860;2023-11-19T09:20:26;14.80;99.90
59857;DHT22;45733;52.668;6.860;2023-11-19T09:22:51;15.00;99.90
59857;DHT22;45733;52.668;6.860;2023-11-19T09:25:17;14.90;99.90
59857;DHT22;45733;52.668;6.860;2023-11-19T09:27:52;15.10;99.90
59857;DHT22;45733;52.668;6.860;2023-11-19T09:30:29;15.10;99.90
59857;DHT22;45733;52.668;6.860;2023-11-19T09:32:56;15.10;99.90
59857;DHT22;45733;52.668;6.860;2023-11-19T09:35:23;15.10;99.90
59857;DHT22;45733;52.668;6.860;2023-11-19T09:37:49;15.10;99.90
59857;DHT22;45733;52.668;6.860;2023-11-19T09:40:14;15.20;99.90
59857;DHT22;45733;52.668;6.860;2023-11-19T09:42:57;15.20;99.90
59857;DHT22;45733;52.668;6.860;2023-11-19T09:48:54;15.30;99.90
59857;DHT22;45733;52.668;6.860;2023-11-19T09:51:39;15.30;99.90
59857;DHT22;45733;52.668;6.860;2023-11-19T09:54:20;15.30;99.90
59857;DHT22;45733;52.668;6.860;2023-11-19T09:56:49;15.40;99.90
59857;DHT22;45733;52.668;6.860;2023-11-19T09:59:21;15.50;99.90
59857;DHT22;45733;52.668;6.860;2023-11-19T10:02:14;15.40;99.90
59857;DHT22;45733;52.668;6.860;2023-11-19T10:04:49;15.40;99.90
59857;DHT22;45733;52.668;6.860;2023-11-19T10:07:46;15.50;99.90
59857;DHT22;45733;52.668;6.860;2023-11-19T10:10:20;15.50;99.90
59857;DHT22;45733;52.668;6.860;2023-11-19T10:12:54;15.50;99.90
59857;DHT22;45733;52.668;6.860;2023-11-19T10:15:22;15.50;99.90
59857;DHT22;45733;52.668;6.860;2023-11-19T10:17:51;15.50;99.90
59857;DHT22;45733;52.668;6.860;2023-11-19T10:20:17;15.60;99.90
59857;DHT22;45733;52.668;6.860;2023-11-19T10:22:52;15.60;99.90
59857;DHT22;45733;52.668;6.860;2023-11-19T10:25:25;15.70;99.90
59857;DHT22;45733;52.668;6.860;2023-11-19T10:27:51;15.70;99.90
59857;DHT22;45733;52.668;6.860;2023-11-19T10:30:22;15.70;99.90
59857;DHT22;45733;52.668;6.860;2023-11-19T10:33:29;15.60;99.90
59857;DHT22;45733;52.668;6.860;2023-11-19T10:36:10;15.50;99.90
59857;DHT22;45733;52.668;6.860;2023-11-19T10:38:38;15.40;99.90
59857;DHT22;45733;52.668;6.860;2023-11-19T10:41:04;15.30;99.90
59857;DHT22;45733;52.668;6.860;2023-11-19T10:46:41;15.20;99.90
59857;DHT22;45733;52.668;6.860;2023-11-19T10:49:16;15.10;99.90
59857;DHT22;45733;52.668;6.860;2023-11-19T10:51:49;15.10;99.90
59857;DHT22;45733;52.668;6.860;2023-11-19T10:54:19;15.20;99.90
59857;DHT22;45733;52.668;6.860;2023-11-19T10:57:12;15.20;99.90
59857;DHT22;45733;52.668;6.860;2023-11-19T10:59:44;15.50;99.90
59857;DHT22;45733;52.668;6.860;2023-11-19T11:02:22;15.50;99.90
59857;DHT22;45733;52.668;6.860;2023-11-19T11:04:50;15.50;99.90
59857;DHT22;45733;52.668;6.860;2023-11-19T11:07:21;15.90;99.90
59857;DHT22;45733;52.668;6.860;2023-11-19T11:09:54;16.10;99.90
59857;DHT22;45733;52.668;6.860;2023-11-19T11:12:22;16.10;99.90
59857;DHT22;45733;52.668;6.860;2023-11-19T11:14:49;16.10;99.90
59857;DHT22;45733;52.668;6.860;2023-11-19T11:17:33;16.00;99.90
59857;DHT22;45733;52.668;6.860;2023-11-19T11:20:25;15.90;99.90
59857;DHT22;45733;52.668;6.860;2023-11-19T11:30:03;16.20;99.90
59857;DHT22;45733;52.668;6.860;2023-11-19T11:37:42;16.00;99.90
59857;DHT22;45733;52.668;6.860;2023-11-19T11:40:16;15.90;99.90
59857;DHT22;45733;52.668;6.860;2023-11-19T11:43:07;15.80;99.90
59857;DHT22;45733;52.668;6.860;2023-11-19T11:45:39;15.70;99.90
59857;DHT22;45733;52.668;6.860;2023-11-19T11:48:20;15.60;99.90
59857;DHT22;45733;52.668;6.860;2023-11-19T11:50:58;15.40;99.90
59857;DHT22;45733;52.668;6.860;2023-11-19T12:00:33;15.10;99.90
59857;DHT22;45733;52.668;6.860;2023-11-19T12:07:24;15.30;99.90
59857;DHT22;45733;52.668;6.860;2023-11-19T12:20:18;15.50;99.90
59857;DHT22;45733;52.668;6.860;2023-11-19T12:22:50;15.60;99.90
59857;DHT22;45733;52.668;6.860;2023-11-19T12:25:20;15.50;99.90
59857;DHT22;45733;52.668;6.860;2023-11-19T12:28:05;15.20;99.90
59857;DHT22;45733;52.668;6.860;2023-11-19T12:31:09;15.50;99.90
59857;DHT22;45733;52.668;6.860;2023-11-19T12:33:53;15.50;99.90
59857;DHT22;45733;52.668;6.860;2023-11-19T12:36:22;15.80;99.90
59857;DHT22;45733;52.668;6.860;2023-11-19T12:38:49;15.60;99.90
59857;DHT22;45733;52.668;6.860;2023-11-19T12:41:16;15.60;99.90
59857;DHT22;45733;52.668;6.860;2023-11-19T12:44:09;15.50;99.90
59857;DHT22;45733;52.668;6.860;2023-11-19T12:46:44;15.50;99.90
59857;DHT22;45733;52.668;6.860;2023-11-19T12:49:11;15.60;99.90
59857;DHT22;45733;52.668;6.860;2023-11-19T12:51:41;15.50;99.90
59857;DHT22;45733;52.668;6.860;2023-11-19T12:54:07;15.70;99.90
59857;DHT22;45733;52.668;6.860;2023-11-19T12:56:33;15.80;99.90
59857;DHT22;45733;52.668;6.860;2023-11-19T12:59:12;15.60;99.90
59857;DHT22;45733;52.668;6.860;2023-11-19T13:01:38;15.70;99.90
59857;DHT22;45733;52.668;6.860;2023-11-19T13:04:20;15.60;99.90
59857;DHT22;45733;52.668;6.860;2023-11-19T13:06:46;15.60;99.90
59857;DHT22;45733;52.668;6.860;2023-11-19T13:09:26;15.60;99.90
59857;DHT22;45733;52.668;6.860;2023-11-19T13:11:58;15.60;99.90
59857;DHT22;45733;52.668;6.860;2023-11-19T13:17:42;15.60;99.90
59857;DHT22;45733;52.668;6.860;2023-11-19T13:23:36;15.60;99.90
59857;DHT22;45733;52.668;6.860;2023-11-19T13:26:20;15.50;99.90
59857;DHT22;45733;52.668;6.860;2023-11-19T13:28:58;15.50;99.90
59857;DHT22;45733;52.668;6.860;2023-11-19T13:31:43;15.50;99.90
59857;DHT22;45733;52.668;6.860;2023-11-19T13:34:42;15.50;99.90
59857;DHT22;45733;52.668;6.860;2023-11-19T13:37:34;15.40;99.90
59857;DHT22;45733;52.668;6.860;2023-11-19T13:40:14;15.40;99.90
59857;DHT22;45733;52.668;6.860;2023-11-19T13:42:50;15.40;99.90
59857;DHT22;45733;52.668;6.860;2023-11-19T13:45:27;15.30;99.90
59857;DHT22;45733;52.668;6.860;2023-11-19T13:47:56;15.30;99.90
59857;DHT22;45733;52.668;6.860;2023-11-19T13:50:42;15.20;99.90
59857;DHT22;45733;52.668;6.860;2023-11-19T13:53:32;15.10;99.90
59857;DHT22;45733;52.668;6.860;2023-11-19T13:56:22;15.10;99.90
59857;DHT22;45733;52.668;6.860;2023-11-19T13:58:54;15.10;99.90
59857;DHT22;45733;52.668;6.860;2023-11-19T14:01:26;14.90;99.90
59857;DHT22;45733;52.668;6.860;2023-11-19T14:04:25;14.90;99.90
59857;DHT22;45733;52.668;6.860;2023-11-19T14:06:51;14.90;99.90
59857;DHT22;45733;52.668;6.860;2023-11-19T14:09:44;14.80;99.90
59857;DHT22;45733;52.668;6.860;2023-11-19T14:12:11;14.90;99.90
59857;DHT22;45733;52.668;6.860;2023-11-19T14:14:44;14.90;99.90
59857;DHT22;45733;52.668;6.860;2023-11-19T14:17:20;14.80;99.90
59857;DHT22;45733;52.668;6.860;2023-11-19T14:20:06;14.80;99.90
59857;DHT22;45733;52.668;6.860;2023-11-19T14:22:45;14.70;99.90
59857;DHT22;45733;52.668;6.860;2023-11-19T14:25:29;14.60;99.90
59857;DHT22;45733;52.668;6.860;2023-11-19T14:27:55;14.60;99.90
59857;DHT22;45733;52.668;6.860;2023-11-19T14:30:36;14.70;99.90
59857;DHT22;45733;52.668;6.860;2023-11-19T14:33:19;14.70;99.90
59857;DHT22;45733;52.668;6.860;2023-11-19T14:35:54;14.50;99.90
59857;DHT22;45733;52.668;6.860;2023-11-19T14:38:49;14.60;99.90
59857;DHT22;45733;52.668;6.860;2023-11-19T14:44:53;14.60;99.90
59857;DHT22;45733;52.668;6.860;2023-11-19T14:47:25;14.40;99.90
59857;DHT22;45733;52.668;6.860;2023-11-19T14:50:01;14.40;99.90
59857;DHT22;45733;52.668;6.860;2023-11-19T14:52:28;14.60;99.90
59857;DHT22;45733;52.668;6.860;2023-11-19T14:54:57;14.40;99.90
59857;DHT22;45733;52.668;6.860;2023-11-19T15:01:14;14.60;99.90
59857;DHT22;45733;52.668;6.860;2023-11-19T15:07:43;14.30;99.90
59857;DHT22;45733;52.668;6.860;2023-11-19T15:10:12;14.30;99.90
59857;DHT22;45733;52.668;6.860;2023-11-19T15:13:00;14.20;99.90
59857;DHT22;45733;52.668;6.860;2023-11-19T15:15:55;14.50;99.90
59857;DHT22;45733;52.668;6.860;2023-11-19T15:18:38;14.40;99.90
59857;DHT22;45733;52.668;6.860;2023-11-19T15:21:26;14.20;99.90
59857;DHT22;45733;52.668;6.860;2023-11-19T15:24:00;14.10;99.90
59857;DHT22;45733;52.668;6.860;2023-11-19T15:26:30;14.30;99.90
59857;DHT22;45733;52.668;6.860;2023-11-19T15:32:08;14.10;99.90
59857;DHT22;45733;52.668;6.860;2023-11-19T15:38:16;14.30;99.90
59857;DHT22;45733;52.668;6.860;2023-11-19T15:40:41;14.10;99.90
59857;DHT22;45733;52.668;6.860;2023-11-19T15:43:24;14.20;99.90
59857;DHT22;45733;52.668;6.860;2023-11-19T15:46:18;14.10;99.90
59857;DHT22;45733;52.668;6.860;2023-11-19T15:48:55;14.10;99.90
59857;DHT22;45733;52.668;6.860;2023-11-19T16:04:59;14.20;99.90
59857;DHT22;45733;52.668;6.860;2023-11-19T16:08:24;14.50;99.90
59857;DHT22;45733;52.668;6.860;2023-11-19T16:11:02;14.10;99.90
59857;DHT22;45733;52.668;6.860;2023-11-19T16:13:41;14.10;99.90
59857;DHT22;45733;52.668;6.860;2023-11-19T16:16:07;14.40;99.90
59857;DHT22;45733;52.668;6.860;2023-11-19T16:18:39;14.10;99.90
59857;DHT22;45733;52.668;6.860;2023-11-19T16:21:15;14.10;99.90
59857;DHT22;45733;52.668;6.860;2023-11-19T16:23:40;14.20;99.90
59857;DHT22;45733;52.668;6.860;2023-11-19T16:27:14;14.30;99.90
59857;DHT22;45733;52.668;6.860;2023-11-19T16:29:41;14.40;99.90
59857;DHT22;45733;52.668;6.860;2023-11-19T16:32:08;14.10;99.90
59857;DHT22;45733;52.668;6.860;2023-11-19T16:34:34;14.30;99.90
59857;DHT22;45733;52.668;6.860;2023-11-19T16:37:06;14.40;99.90
59857;DHT22;45733;52.668;6.860;2023-11-19T16:39:32;14.40;99.90
59857;DHT22;45733;52.668;6.860;2023-11-19T16:41:58;14.40;99.90
59857;DHT22;45733;52.668;6.860;2023-11-19T16:44:24;14.00;99.90
59857;DHT22;45733;52.668;6.860;2023-11-19T16:46:49;14.40;99.90
59857;DHT22;45733;52.668;6.860;2023-11-19T16:49:15;14.00;99.90
59857;DHT22;45733;52.668;6.860;2023-11-19T16:51:47;14.40;99.90
59857;DHT22;45733;52.668;6.860;2023-11-19T16:54:14;14.00;99.90
59857;DHT22;45733;52.668;6.860;2023-11-19T16:56:43;14.10;99.90
59857;DHT22;45733;52.668;6.860;2023-11-19T16:59:11;14.20;99.90
59857;DHT22;45733;52.668;6.860;2023-11-19T17:01:42;14.20;99.90
59857;DHT22;45733;52.668;6.860;2023-11-19T17:04:09;14.40;99.90
59857;DHT22;45733;52.668;6.860;2023-11-19T17:06:55;14.50;99.90
59857;DHT22;45733;52.668;6.860;2023-11-19T17:09:21;14.00;99.90
59857;DHT22;45733;52.668;6.860;2023-11-19T17:11:49;14.50;99.90
59857;DHT22;45733;52.668;6.860;2023-11-19T17:14:15;14.20;99.90
59857;DHT22;45733;52.668;6.860;2023-11-19T17:16:47;14.00;99.90
59857;DHT22;45733;52.668;6.860;2023-11-19T17:19:13;14.40;99.90
59857;DHT22;45733;52.668;6.860;2023-11-19T17:21:57;14.00;99.90
59857;DHT22;45733;52.668;6.860;2023-11-19T17:24:23;14.40;99.90
59857;DHT22;45733;52.668;6.860;2023-11-19T17:27:02;14.30;99.90
59857;DHT22;45733;52.668;6.860;2023-11-19T17:29:27;14.20;99.90
59857;DHT22;45733;52.668;6.860;2023-11-19T17:31:59;14.50;99.90
59857;DHT22;45733;52.668;6.860;2023-11-19T17:34:27;14.40;99.90
59857;DHT22;45733;52.668;6.860;2023-11-19T17:37:03;14.50;99.90
59857;DHT22;45733;52.668;6.860;2023-11-19T17:39:32;14.00;99.90
59857;DHT22;45733;52.668;6.860;2023-11-19T17:42:02;14.50;99.90
59857;DHT22;45733;52.668;6.860;2023-11-19T17:44:29;14.20;99.90
59857;DHT22;45733;52.668;6.860;2023-11-19T17:46:55;14.50;99.90
59857;DHT22;45733;52.668;6.860;2023-11-19T17:49:20;14.50;99.90
59857;DHT22;45733;52.668;6.860;2023-11-19T17:51:46;14.00;99.90
59857;DHT22;45733;52.668;6.860;2023-11-19T17:54:12;14.10;99.90
59857;DHT22;45733;52.668;6.860;2023-11-19T17:56:37;14.50;99.90
59857;DHT22;45733;52.668;6.860;2023-11-19T17:59:07;14.10;99.90
59857;DHT22;45733;52.668;6.860;2023-11-19T18:01:47;14.50;99.90
59857;DHT22;45733;52.668;6.860;2023-11-19T18:04:13;14.50;99.90
59857;DHT22;45733;52.668;6.860;2023-11-19T18:06:39;14.30;99.90
59857;DHT22;45733;52.668;6.860;2023-11-19T18:09:05;14.60;99.90
59857;DHT22;45733;52.668;6.860;2023-11-19T18:11:38;14.10;99.90
59857;DHT22;45733;52.668;6.860;2023-11-19T18:14:04;14.40;99.90
59857;DHT22;45733;52.668;6.860;2023-11-19T18:16:29;14.10;99.90
59857;DHT22;45733;52.668;6.860;2023-11-19T18:18:55;14.00;99.90
59857;DHT22;45733;52.668;6.860;2023-11-19T18:21:21;14.40;99.90
59857;DHT22;45733;52.668;6.860;2023-11-19T18:23:46;14.40;99.90
59857;DHT22;45733;52.668;6.860;2023-11-19T18:26:15;14.60;99.90
59857;DHT22;45733;52.668;6.860;2023-11-19T18:28:50;14.60;99.90
59857;DHT22;45733;52.668;6.860;2023-11-19T18:31:25;14.50;99.90
59857;DHT22;45733;52.668;6.860;2023-11-19T18:34:03;14.30;99.90
59857;DHT22;45733;52.668;6.860;2023-11-19T18:36:34;14.40;99.90
59857;DHT22;45733;52.668;6.860;2023-11-19T18:39:02;14.30;99.90
59857;DHT22;45733;52.668;6.860;2023-11-19T18:41:32;14.20;99.90
59857;DHT22;45733;52.668;6.860;2023-11-19T18:47:20;14.10;99.90
59857;DHT22;45733;52.668;6.860;2023-11-19T18:49:54;14.60;99.90
59857;DHT22;45733;52.668;6.860;2023-11-19T18:52:21;14.20;99.90
59857;DHT22;45733;52.668;6.860;2023-11-19T18:54:53;14.60;99.90
59857;DHT22;45733;52.668;6.860;2023-11-19T18:57:19;14.60;99.90
59857;DHT22;45733;52.668;6.860;2023-11-19T18:59:45;14.40;99.90
59857;DHT22;45733;52.668;6.860;2023-11-19T19:02:14;14.30;99.90
59857;DHT22;45733;52.668;6.860;2023-11-19T19:04:42;14.30;99.90
59857;DHT22;45733;52.668;6.860;2023-11-19T19:07:14;14.00;99.90
59857;DHT22;45733;52.668;6.860;2023-11-19T19:09:43;14.10;99.90
59857;DHT22;45733;52.668;6.860;2023-11-19T19:12:14;14.10;99.90
59857;DHT22;45733;52.668;6.860;2023-11-19T19:14:43;14.00;99.90
59857;DHT22;45733;52.668;6.860;2023-11-19T19:17:24;14.10;99.90
59857;DHT22;45733;52.668;6.860;2023-11-19T19:19:50;14.50;99.90
59857;DHT22;45733;52.668;6.860;2023-11-19T19:22:18;14.60;99.90
59857;DHT22;45733;52.668;6.860;2023-11-19T19:24:47;14.70;99.90
59857;DHT22;45733;52.668;6.860;2023-11-19T19:27:16;14.30;99.90
59857;DHT22;45733;52.668;6.860;2023-11-19T19:29:42;14.70;99.90
59857;DHT22;45733;52.668;6.860;2023-11-19T19:32:09;14.30;99.90
59857;DHT22;45733;52.668;6.860;2023-11-19T19:34:38;14.40;99.90
59857;DHT22;45733;52.668;6.860;2023-11-19T19:37:05;14.80;99.90
59857;DHT22;45733;52.668;6.860;2023-11-19T19:39:32;14.20;99.90
59857;DHT22;45733;52.668;6.860;2023-11-19T19:42:05;14.20;99.90
59857;DHT22;45733;52.668;6.860;2023-11-19T19:44:31;14.60;99.90
59857;DHT22;45733;52.668;6.860;2023-11-19T19:47:00;14.70;99.90
59857;DHT22;45733;52.668;6.860;2023-11-19T19:49:37;14.80;99.90
59857;DHT22;45733;52.668;6.860;2023-11-19T19:52:31;14.40;99.90
59857;DHT22;45733;52.668;6.860;2023-11-19T19:54:58;14.00;99.90
59857;DHT22;45733;52.668;6.860;2023-11-19T19:57:38;14.10;99.90
59857;DHT22;45733;52.668;6.860;2023-11-19T20:00:33;14.40;99.90
59857;DHT22;45733;52.668;6.860;2023-11-19T20:02:59;14.70;99.90
59857;DHT22;45733;52.668;6.860;2023-11-19T20:05:24;14.90;99.90
59857;DHT22;45733;52.668;6.860;2023-11-19T20:08:13;14.00;99.90
59857;DHT22;45733;52.668;6.860;2023-11-19T20:17:02;14.10;99.90
59857;DHT22;45733;52.668;6.860;2023-11-19T20:19:57;14.20;99.90
59857;DHT22;45733;52.668;6.860;2023-11-19T20:22:42;14.80;99.90
59857;DHT22;45733;52.668;6.860;2023-11-19T20:25:08;14.70;99.90
59857;DHT22;45733;52.668;6.860;2023-11-19T20:28:02;15.10;99.90
59857;DHT22;45733;52.668;6.860;2023-11-19T20:30:51;14.40;99.90
59857;DHT22;45733;52.668;6.860;2023-11-19T20:36:25;14.10;99.90
59857;DHT22;45733;52.668;6.860;2023-11-19T20:39:22;15.10;99.90
59857;DHT22;45733;52.668;6.860;2023-11-19T20:42:16;15.20;99.90
59857;DHT22;45733;52.668;6.860;2023-11-19T20:44:44;14.80;99.90
59857;DHT22;45733;52.668;6.860;2023-11-19T20:47:16;14.30;99.90
59857;DHT22;45733;52.668;6.860;2023-11-19T20:52:42;15.00;99.90
59857;DHT22;45733;52.668;6.860;2023-11-19T20:55:14;14.80;99.90
59857;DHT22;45733;52.668;6.860;2023-11-19T20:57:41;15.10;99.90
59857;DHT22;45733;52.668;6.860;2023-11-19T21:00:18;14.30;99.90
59857;DHT22;45733;52.668;6.860;2023-11-19T21:02:56;14.40;99.90